sensor_id;sensor_type;location;lat;lon;timestamp;P1;durP1;ratioP1;P2;durP2;ratioP2
48777;SDS011;34578;0.000;0.000;2023-06-10T00:02:54;0.87;;;0.80;;
48777;SDS011;34578;0.000;0.000;2023-06-10T00:07:54;0.60;;;0.60;;
48777;SDS011;34578;0.000;0.000;2023-06-10T00:12:55;0.60;;;0.60;;
48777;SDS011;34578;0.000;0.000;2023-06-10T00:17:56;0.47;;;0.47;;
48777;SDS011;34578;0.000;0.000;2023-06-10T00:22:57;0.57;;;0.57;;
48777;SDS011;34578;0.000;0.000;2023-06-10T00:27:59;0.57;;;0.57;;
48777;SDS011;34578;0.000;0.000;2023-06-10T00:33:01;0.80;;;0.70;;
48777;SDS011;34578;0.000;0.000;2023-06-10T00:38:02;0.80;;;0.80;;
48777;SDS011;34578;0.000;0.000;2023-06-10T00:43:02;1.10;;;1.00;;
48777;SDS011;34578;0.000;0.000;2023-06-10T00:48:03;1.03;;;0.73;;
48777;SDS011;34578;0.000;0.000;2023-06-10T00:53:04;0.93;;;0.90;;
48777;SDS011;34578;0.000;0.000;2023-06-10T00:58:04;0.98;;;0.80;;
48777;SDS011;34578;0.000;0.000;2023-06-10T01:03:07;0.65;;;0.65;;
48777;SDS011;34578;0.000;0.000;2023-06-10T01:08:15;0.70;;;0.70;;
48777;SDS011;34578;0.000;0.000;2023-06-10T01:13:26;0.50;;;0.50;;
48777;SDS011;34578;0.000;0.000;2023-06-10T01:18:31;0.55;;;0.55;;
48777;SDS011;34578;0.000;0.000;2023-06-10T01:23:32;0.73;;;0.73;;
48777;SDS011;34578;0.000;0.000;2023-06-10T01:28:38;0.63;;;0.63;;
48777;SDS011;34578;0.000;0.000;2023-06-10T01:33:49;0.70;;;0.70;;
48777;SDS011;34578;0.000;0.000;2023-06-10T01:38:53;0.60;;;0.60;;
48777;SDS011;34578;0.000;0.000;2023-06-10T01:43:54;0.80;;;0.80;;
48777;SDS011;34578;0.000;0.000;2023-06-10T01:48:55;0.50;;;0.50;;
48777;SDS011;34578;0.000;0.000;2023-06-10T01:53:56;0.85;;;0.73;;
48777;SDS011;34578;0.000;0.000;2023-06-10T01:58:56;0.60;;;0.60;;
48777;SDS011;34578;0.000;0.000;2023-06-10T02:03:59;0.75;;;0.75;;
48777;SDS011;34578;0.000;0.000;2023-06-10T02:08:59;0.50;;;0.50;;
48777;SDS011;34578;0.000;0.000;2023-06-10T02:14:02;0.60;;;0.60;;
48777;SDS011;34578;0.000;0.000;2023-06-10T02:19:03;0.70;;;0.70;;
48777;SDS011;34578;0.000;0.000;2023-06-10T02:24:07;1.20;;;0.65;;
48777;SDS011;34578;0.000;0.000;2023-06-10T02:29:09;0.75;;;0.75;;
48777;SDS011;34578;0.000;0.000;2023-06-10T02:34:10;4.57;;;1.10;;
48777;SDS011;34578;0.000;0.000;2023-06-10T02:39:10;0.93;;;0.93;;
48777;SDS011;34578;0.000;0.000;2023-06-10T02:44:14;1.00;;;1.00;;
48777;SDS011;34578;0.000;0.000;2023-06-10T02:49:14;0.90;;;0.90;;
48777;SDS011;34578;0.000;0.000;2023-06-10T02:54:16;0.65;;;0.65;;
48777;SDS011;34578;0.000;0.000;2023-06-10T02:59:17;0.50;;;0.50;;
48777;SDS011;34578;0.000;0.000;2023-06-10T03:04:18;0.80;;;0.80;;
48777;SDS011;34578;0.000;0.000;2023-06-10T03:09:28;0.50;;;0.50;;
48777;SDS011;34578;0.000;0.000;2023-06-10T03:14:31;0.50;;;0.50;;
48777;SDS011;34578;0.000;0.000;2023-06-10T03:19:32;0.77;;;0.77;;
48777;SDS011;34578;0.000;0.000;2023-06-10T03:24:33;0.77;;;0.75;;
48777;SDS011;34578;0.000;0.000;2023-06-10T03:29:34;0.73;;;0.70;;
48777;SDS011;34578;0.000;0.000;2023-06-10T03:34:35;0.80;;;0.80;;
48777;SDS011;34578;0.000;0.000;2023-06-10T03:39:36;1.30;;;1.20;;
48777;SDS011;34578;0.000;0.000;2023-06-10T03:44:36;0.73;;;0.73;;
48777;SDS011;34578;0.000;0.000;2023-06-10T03:49:39;0.90;;;0.80;;
48777;SDS011;34578;0.000;0.000;2023-06-10T03:54:41;0.60;;;0.60;;
48777;SDS011;34578;0.000;0.000;2023-06-10T03:59:41;0.50;;;0.50;;
48777;SDS011;34578;0.000;0.000;2023-06-10T04:04:42;0.63;;;0.60;;
48777;SDS011;34578;0.000;0.000;2023-06-10T04:09:42;0.52;;;0.52;;
48777;SDS011;34578;0.000;0.000;2023-06-10T04:14:43;0.70;;;0.50;;
48777;SDS011;34578;0.000;0.000;2023-06-10T04:19:45;0.77;;;0.77;;
48777;SDS011;34578;0.000;0.000;2023-06-10T04:24:46;0.68;;;0.68;;
48777;SDS011;34578;0.000;0.000;2023-06-10T04:29:47;0.70;;;0.70;;
48777;SDS011;34578;0.000;0.000;2023-06-10T04:34:48;0.50;;;0.50;;
48777;SDS011;34578;0.000;0.000;2023-06-10T04:39:49;0.70;;;0.70;;
48777;SDS011;34578;0.000;0.000;2023-06-10T04:44:50;0.70;;;0.70;;
48777;SDS011;34578;0.000;0.000;2023-06-10T04:49:50;0.70;;;0.70;;
48777;SDS011;34578;0.000;0.000;2023-06-10T04:54:51;0.60;;;0.60;;
48777;SDS011;34578;0.000;0.000;2023-06-10T04:59:52;0.70;;;0.70;;
48777;SDS011;34578;0.000;0.000;2023-06-10T05:04:53;0.60;;;0.60;;
48777;SDS011;34578;0.000;0.000;2023-06-10T05:09:55;1.13;;;0.90;;
48777;SDS011;34578;0.000;0.000;2023-06-10T05:14:55;1.90;;;0.73;;
48777;SDS011;34578;0.000;0.000;2023-06-10T05:19:56;0.68;;;0.60;;
48777;SDS011;34578;0.000;0.000;2023-06-10T05:24:56;0.97;;;0.80;;
48777;SDS011;34578;0.000;0.000;2023-06-10T05:29:56;0.60;;;0.60;;
48777;SDS011;34578;0.000;0.000;2023-06-10T05:34:57;1.73;;;1.00;;
48777;SDS011;34578;0.000;0.000;2023-06-10T05:39:57;0.60;;;0.60;;
48777;SDS011;34578;0.000;0.000;2023-06-10T05:44:58;0.60;;;0.60;;
48777;SDS011;34578;0.000;0.000;2023-06-10T05:49:58;0.57;;;0.57;;
48777;SDS011;34578;0.000;0.000;2023-06-10T05:54:58;0.80;;;0.80;;
48777;SDS011;34578;0.000;0.000;2023-06-10T05:59:59;0.85;;;0.80;;
48777;SDS011;34578;0.000;0.000;2023-06-10T06:05:00;0.75;;;0.70;;
48777;SDS011;34578;0.000;0.000;2023-06-10T06:10:00;1.00;;;0.90;;
48777;SDS011;34578;0.000;0.000;2023-06-10T06:15:00;0.80;;;0.80;;
48777;SDS011;34578;0.000;0.000;2023-06-10T06:20:01;1.00;;;0.90;;
48777;SDS011;34578;0.000;0.000;2023-06-10T06:25:02;1.08;;;0.98;;
48777;SDS011;34578;0.000;0.000;2023-06-10T06:30:03;0.73;;;0.73;;
48777;SDS011;34578;0.000;0.000;2023-06-10T06:35:04;0.70;;;0.70;;
48777;SDS011;34578;0.000;0.000;2023-06-10T06:40:07;0.70;;;0.60;;
48777;SDS011;34578;0.000;0.000;2023-06-10T06:45:08;0.77;;;0.77;;
48777;SDS011;34578;0.000;0.000;2023-06-10T06:50:09;0.68;;;0.68;;
48777;SDS011;34578;0.000;0.000;2023-06-10T06:55:10;0.70;;;0.70;;
48777;SDS011;34578;0.000;0.000;2023-06-10T07:00:10;0.70;;;0.70;;
48777;SDS011;34578;0.000;0.000;2023-06-10T07:05:11;0.90;;;0.90;;
48777;SDS011;34578;0.000;0.000;2023-06-10T07:10:11;1.20;;;1.10;;
48777;SDS011;34578;0.000;0.000;2023-06-10T07:15:12;1.10;;;1.00;;
48777;SDS011;34578;0.000;0.000;2023-06-10T07:20:12;1.10;;;1.00;;
48777;SDS011;34578;0.000;0.000;2023-06-10T07:25:13;0.90;;;0.90;;
48777;SDS011;34578;0.000;0.000;2023-06-10T07:30:13;0.67;;;0.63;;
48777;SDS011;34578;0.000;0.000;2023-06-10T07:35:14;0.60;;;0.60;;
48777;SDS011;34578;0.000;0.000;2023-06-10T07:40:14;0.70;;;0.60;;
48777;SDS011;34578;0.000;0.000;2023-06-10T07:45:15;0.63;;;0.63;;
48777;SDS011;34578;0.000;0.000;2023-06-10T07:50:15;0.77;;;0.77;;
48777;SDS011;34578;0.000;0.000;2023-06-10T07:55:15;1.00;;;0.93;;
48777;SDS011;34578;0.000;0.000;2023-06-10T08:00:18;0.90;;;0.90;;
48777;SDS011;34578;0.000;0.000;2023-06-10T08:05:19;1.23;;;1.13;;
48777;SDS011;34578;0.000;0.000;2023-06-10T08:10:20;1.15;;;1.05;;
48777;SDS011;34578;0.000;0.000;2023-06-10T08:15:21;1.30;;;1.20;;
48777;SDS011;34578;0.000;0.000;2023-06-10T08:20:21;0.77;;;0.77;;
48777;SDS011;34578;0.000;0.000;2023-06-10T08:25:21;0.60;;;0.60;;
48777;SDS011;34578;0.000;0.000;2023-06-10T08:30:22;0.50;;;0.50;;
48777;SDS011;34578;0.000;0.000;2023-06-10T08:35:23;0.65;;;0.60;;
48777;SDS011;34578;0.000;0.000;2023-06-10T08:40:23;0.85;;;0.80;;
48777;SDS011;34578;0.000;0.000;2023-06-10T08:45:24;0.80;;;0.80;;
48777;SDS011;34578;0.000;0.000;2023-06-10T08:50:31;1.27;;;1.17;;
48777;SDS011;34578;0.000;0.000;2023-06-10T08:55:38;1.10;;;1.00;;
48777;SDS011;34578;0.000;0.000;2023-06-10T09:00:46;0.80;;;0.80;;
48777;SDS011;34578;0.000;0.000;2023-06-10T09:05:47;1.10;;;1.00;;
48777;SDS011;34578;0.000;0.000;2023-06-10T09:10:48;1.02;;;0.98;;
48777;SDS011;34578;0.000;0.000;2023-06-10T09:15:49;1.45;;;1.35;;
48777;SDS011;34578;0.000;0.000;2023-06-10T09:20:51;0.73;;;0.73;;
48777;SDS011;34578;0.000;0.000;2023-06-10T09:25:57;0.80;;;0.73;;
48777;SDS011;34578;0.000;0.000;2023-06-10T09:31:05;0.75;;;0.75;;
48777;SDS011;34578;0.000;0.000;2023-06-10T09:36:07;0.68;;;0.68;;
48777;SDS011;34578;0.000;0.000;2023-06-10T09:41:07;1.20;;;1.10;;
48777;SDS011;34578;0.000;0.000;2023-06-10T09:46:17;0.80;;;0.70;;
48777;SDS011;34578;0.000;0.000;2023-06-10T09:51:19;0.90;;;0.90;;
48777;SDS011;34578;0.000;0.000;2023-06-10T09:56:19;1.27;;;1.17;;
48777;SDS011;34578;0.000;0.000;2023-06-10T10:01:20;1.30;;;1.20;;
48777;SDS011;34578;0.000;0.000;2023-06-10T10:06:21;1.10;;;1.00;;
48777;SDS011;34578;0.000;0.000;2023-06-10T10:11:22;1.07;;;0.97;;
48777;SDS011;34578;0.000;0.000;2023-06-10T10:16:30;0.85;;;0.75;;
48777;SDS011;34578;0.000;0.000;2023-06-10T10:26:49;0.73;;;0.60;;
48777;SDS011;34578;0.000;0.000;2023-06-10T10:31:50;0.90;;;0.80;;
48777;SDS011;34578;0.000;0.000;2023-06-10T10:36:54;1.10;;;1.00;;
48777;SDS011;34578;0.000;0.000;2023-06-10T10:41:54;1.20;;;1.13;;
48777;SDS011;34578;0.000;0.000;2023-06-10T10:46:56;2.67;;;1.30;;
48777;SDS011;34578;0.000;0.000;2023-06-10T11:02:09;2.17;;;1.10;;
48777;SDS011;34578;0.000;0.000;2023-06-10T11:07:10;1.00;;;0.90;;
48777;SDS011;34578;0.000;0.000;2023-06-10T11:12:10;0.80;;;0.80;;
48777;SDS011;34578;0.000;0.000;2023-06-10T11:17:18;2.50;;;0.80;;
48777;SDS011;34578;0.000;0.000;2023-06-10T11:22:19;2.50;;;1.05;;
48777;SDS011;34578;0.000;0.000;2023-06-10T11:27:20;7.15;;;1.25;;
48777;SDS011;34578;0.000;0.000;2023-06-10T11:32:22;5.50;;;1.70;;
48777;SDS011;34578;0.000;0.000;2023-06-10T11:37:25;3.45;;;2.20;;
48777;SDS011;34578;0.000;0.000;2023-06-10T11:42:25;8.40;;;3.15;;
48777;SDS011;34578;0.000;0.000;2023-06-10T11:47:26;7.00;;;2.70;;
48777;SDS011;34578;0.000;0.000;2023-06-10T11:52:27;8.80;;;2.90;;
48777;SDS011;34578;0.000;0.000;2023-06-10T11:57:37;3.83;;;2.20;;
48777;SDS011;34578;0.000;0.000;2023-06-10T12:02:38;5.25;;;2.15;;
48777;SDS011;34578;0.000;0.000;2023-06-10T12:07:38;3.57;;;2.90;;
48777;SDS011;34578;0.000;0.000;2023-06-10T12:12:39;2.50;;;1.90;;
48777;SDS011;34578;0.000;0.000;2023-06-10T12:17:42;3.80;;;2.00;;
48777;SDS011;34578;0.000;0.000;2023-06-10T12:22:43;3.97;;;1.60;;
48777;SDS011;34578;0.000;0.000;2023-06-10T12:27:51;1.92;;;1.83;;
48777;SDS011;34578;0.000;0.000;2023-06-10T12:32:53;3.70;;;1.80;;
48777;SDS011;34578;0.000;0.000;2023-06-10T12:37:58;4.20;;;1.67;;
48777;SDS011;34578;0.000;0.000;2023-06-10T12:43:05;2.47;;;1.73;;
48777;SDS011;34578;0.000;0.000;2023-06-10T12:48:23;4.15;;;2.67;;
48777;SDS011;34578;0.000;0.000;2023-06-10T12:53:24;2.65;;;2.45;;
48777;SDS011;34578;0.000;0.000;2023-06-10T12:58:28;2.22;;;1.90;;
48777;SDS011;34578;0.000;0.000;2023-06-10T13:03:28;2.13;;;1.73;;
48777;SDS011;34578;0.000;0.000;2023-06-10T13:08:29;3.17;;;2.20;;
48777;SDS011;34578;0.000;0.000;2023-06-10T13:13:29;5.60;;;3.40;;
48777;SDS011;34578;0.000;0.000;2023-06-10T13:18:30;7.80;;;3.10;;
48777;SDS011;34578;0.000;0.000;2023-06-10T13:23:30;7.45;;;3.70;;
48777;SDS011;34578;0.000;0.000;2023-06-10T13:28:31;9.00;;;3.42;;
48777;SDS011;34578;0.000;0.000;2023-06-10T13:33:32;3.33;;;3.03;;
48777;SDS011;34578;0.000;0.000;2023-06-10T13:38:32;6.73;;;4.13;;
48777;SDS011;34578;0.000;0.000;2023-06-10T13:43:32;6.63;;;4.17;;
48777;SDS011;34578;0.000;0.000;2023-06-10T13:48:33;13.33;;;3.20;;
48777;SDS011;34578;0.000;0.000;2023-06-10T13:53:33;8.88;;;3.13;;
48777;SDS011;34578;0.000;0.000;2023-06-10T13:58:34;4.68;;;3.42;;
48777;SDS011;34578;0.000;0.000;2023-06-10T14:03:39;7.80;;;3.15;;
48777;SDS011;34578;0.000;0.000;2023-06-10T14:08:39;6.73;;;3.77;;
48777;SDS011;34578;0.000;0.000;2023-06-10T14:13:39;3.75;;;3.03;;
48777;SDS011;34578;0.000;0.000;2023-06-10T14:18:40;3.35;;;3.05;;
48777;SDS011;34578;0.000;0.000;2023-06-10T14:23:40;7.40;;;2.43;;
48777;SDS011;34578;0.000;0.000;2023-06-10T14:28:41;3.83;;;2.80;;
48777;SDS011;34578;0.000;0.000;2023-06-10T14:33:41;3.90;;;3.50;;
48777;SDS011;34578;0.000;0.000;2023-06-10T14:38:43;3.88;;;3.50;;
48777;SDS011;34578;0.000;0.000;2023-06-10T14:43:43;5.80;;;3.13;;
48777;SDS011;34578;0.000;0.000;2023-06-10T14:48:44;6.40;;;5.03;;
48777;SDS011;34578;0.000;0.000;2023-06-10T14:53:44;5.33;;;4.63;;
48777;SDS011;34578;0.000;0.000;2023-06-10T14:58:45;7.97;;;6.13;;
48777;SDS011;34578;0.000;0.000;2023-06-10T15:03:46;4.30;;;3.27;;
48777;SDS011;34578;0.000;0.000;2023-06-10T15:08:46;7.90;;;4.03;;
48777;SDS011;34578;0.000;0.000;2023-06-10T15:13:48;4.28;;;3.30;;
48777;SDS011;34578;0.000;0.000;2023-06-10T15:18:48;4.03;;;3.63;;
48777;SDS011;34578;0.000;0.000;2023-06-10T15:23:49;5.37;;;4.60;;
48777;SDS011;34578;0.000;0.000;2023-06-10T15:28:49;4.07;;;3.72;;
48777;SDS011;34578;0.000;0.000;2023-06-10T15:33:50;7.30;;;3.08;;
48777;SDS011;34578;0.000;0.000;2023-06-10T15:38:50;5.63;;;4.10;;
48777;SDS011;34578;0.000;0.000;2023-06-10T15:43:51;4.63;;;4.10;;
48777;SDS011;34578;0.000;0.000;2023-06-10T15:48:51;4.93;;;3.97;;
48777;SDS011;34578;0.000;0.000;2023-06-10T15:53:53;7.35;;;3.33;;
48777;SDS011;34578;0.000;0.000;2023-06-10T15:58:54;5.85;;;4.53;;
48777;SDS011;34578;0.000;0.000;2023-06-10T16:03:54;6.57;;;3.67;;
48777;SDS011;34578;0.000;0.000;2023-06-10T16:08:54;14.00;;;4.80;;
48777;SDS011;34578;0.000;0.000;2023-06-10T16:13:55;13.07;;;5.45;;
48777;SDS011;34578;0.000;0.000;2023-06-10T16:18:55;6.33;;;3.73;;
48777;SDS011;34578;0.000;0.000;2023-06-10T16:23:56;7.90;;;3.73;;
48777;SDS011;34578;0.000;0.000;2023-06-10T16:28:56;6.03;;;3.00;;
48777;SDS011;34578;0.000;0.000;2023-06-10T16:33:56;9.23;;;3.37;;
48777;SDS011;34578;0.000;0.000;2023-06-10T16:38:57;7.73;;;2.67;;
48777;SDS011;34578;0.000;0.000;2023-06-10T16:43:57;6.23;;;3.60;;
48777;SDS011;34578;0.000;0.000;2023-06-10T16:48:58;5.77;;;2.73;;
48777;SDS011;34578;0.000;0.000;2023-06-10T16:53:58;4.73;;;2.67;;
48777;SDS011;34578;0.000;0.000;2023-06-10T16:58:58;5.53;;;3.00;;
48777;SDS011;34578;0.000;0.000;2023-06-10T17:03:59;6.28;;;2.70;;
48777;SDS011;34578;0.000;0.000;2023-06-10T17:08:59;4.70;;;2.67;;
48777;SDS011;34578;0.000;0.000;2023-06-10T17:13:59;2.53;;;2.30;;
48777;SDS011;34578;0.000;0.000;2023-06-10T17:19:00;8.00;;;2.40;;
48777;SDS011;34578;0.000;0.000;2023-06-10T17:24:00;2.33;;;2.13;;
48777;SDS011;34578;0.000;0.000;2023-06-10T17:29:01;5.70;;;2.80;;
48777;SDS011;34578;0.000;0.000;2023-06-10T17:34:02;5.07;;;3.10;;
48777;SDS011;34578;0.000;0.000;2023-06-10T17:39:02;8.93;;;5.00;;
48777;SDS011;34578;0.000;0.000;2023-06-10T17:44:03;24.63;;;5.20;;
48777;SDS011;34578;0.000;0.000;2023-06-10T17:49:04;24.88;;;4.90;;
48777;SDS011;34578;0.000;0.000;2023-06-10T17:54:05;15.87;;;5.10;;
48777;SDS011;34578;0.000;0.000;2023-06-10T17:59:06;19.98;;;5.15;;
48777;SDS011;34578;0.000;0.000;2023-06-10T18:04:07;14.60;;;4.65;;
48777;SDS011;34578;0.000;0.000;2023-06-10T18:09:07;8.73;;;4.13;;
48777;SDS011;34578;0.000;0.000;2023-06-10T18:14:08;8.57;;;3.67;;
48777;SDS011;34578;0.000;0.000;2023-06-10T18:19:09;27.35;;;6.63;;
48777;SDS011;34578;0.000;0.000;2023-06-10T18:24:10;5.77;;;4.30;;
48777;SDS011;34578;0.000;0.000;2023-06-10T18:29:10;10.15;;;5.10;;
48777;SDS011;34578;0.000;0.000;2023-06-10T18:34:10;9.53;;;4.07;;
48777;SDS011;34578;0.000;0.000;2023-06-10T18:39:11;7.10;;;3.50;;
48777;SDS011;34578;0.000;0.000;2023-06-10T18:44:11;13.85;;;4.28;;
48777;SDS011;34578;0.000;0.000;2023-06-10T18:49:12;12.27;;;4.20;;
48777;SDS011;34578;0.000;0.000;2023-06-10T18:54:12;11.63;;;6.27;;
48777;SDS011;34578;0.000;0.000;2023-06-10T18:59:15;11.07;;;6.95;;
48777;SDS011;34578;0.000;0.000;2023-06-10T19:04:15;19.25;;;6.05;;
48777;SDS011;34578;0.000;0.000;2023-06-10T19:09:16;10.90;;;4.15;;
48777;SDS011;34578;0.000;0.000;2023-06-10T19:14:16;15.98;;;5.38;;
48777;SDS011;34578;0.000;0.000;2023-06-10T19:19:16;9.73;;;4.40;;
48777;SDS011;34578;0.000;0.000;2023-06-10T19:24:17;8.53;;;3.47;;
48777;SDS011;34578;0.000;0.000;2023-06-10T19:29:17;4.23;;;3.80;;
48777;SDS011;34578;0.000;0.000;2023-06-10T19:34:17;7.47;;;3.80;;
48777;SDS011;34578;0.000;0.000;2023-06-10T19:39:18;6.70;;;3.63;;
48777;SDS011;34578;0.000;0.000;2023-06-10T19:44:18;8.25;;;4.10;;
48777;SDS011;34578;0.000;0.000;2023-06-10T19:49:19;8.33;;;5.10;;
48777;SDS011;34578;0.000;0.000;2023-06-10T19:54:19;5.90;;;3.78;;
48777;SDS011;34578;0.000;0.000;2023-06-10T19:59:20;9.47;;;4.10;;
48777;SDS011;34578;0.000;0.000;2023-06-10T20:04:20;7.50;;;3.50;;
48777;SDS011;34578;0.000;0.000;2023-06-10T20:09:20;4.27;;;3.30;;
48777;SDS011;34578;0.000;0.000;2023-06-10T20:14:21;5.23;;;3.53;;
48777;SDS011;34578;0.000;0.000;2023-06-10T20:19:21;7.43;;;4.15;;
48777;SDS011;34578;0.000;0.000;2023-06-10T20:24:22;6.17;;;4.23;;
48777;SDS011;34578;0.000;0.000;2023-06-10T20:29:22;5.77;;;3.63;;
48777;SDS011;34578;0.000;0.000;2023-06-10T20:34:25;4.50;;;3.10;;
48777;SDS011;34578;0.000;0.000;2023-06-10T20:39:26;8.33;;;3.10;;
48777;SDS011;34578;0.000;0.000;2023-06-10T20:44:26;4.30;;;2.63;;
48777;SDS011;34578;0.000;0.000;2023-06-10T20:49:27;3.53;;;3.20;;
48777;SDS011;34578;0.000;0.000;2023-06-10T20:54:27;3.00;;;2.47;;
48777;SDS011;34578;0.000;0.000;2023-06-10T20:59:27;3.90;;;2.57;;
48777;SDS011;34578;0.000;0.000;2023-06-10T21:04:28;3.87;;;3.33;;
48777;SDS011;34578;0.000;0.000;2023-06-10T21:09:28;4.23;;;3.00;;
48777;SDS011;34578;0.000;0.000;2023-06-10T21:14:28;3.30;;;2.53;;
48777;SDS011;34578;0.000;0.000;2023-06-10T21:19:29;5.80;;;3.10;;
48777;SDS011;34578;0.000;0.000;2023-06-10T21:24:29;4.70;;;3.23;;
48777;SDS011;34578;0.000;0.000;2023-06-10T21:29:29;5.07;;;2.80;;
48777;SDS011;34578;0.000;0.000;2023-06-10T21:34:30;2.90;;;2.30;;
48777;SDS011;34578;0.000;0.000;2023-06-10T21:39:30;4.00;;;2.73;;
48777;SDS011;34578;0.000;0.000;2023-06-10T21:44:30;3.07;;;2.30;;
48777;SDS011;34578;0.000;0.000;2023-06-10T21:49:31;2.53;;;2.30;;
48777;SDS011;34578;0.000;0.000;2023-06-10T21:54:31;5.43;;;2.43;;
48777;SDS011;34578;0.000;0.000;2023-06-10T21:59:31;4.50;;;3.43;;
48777;SDS011;34578;0.000;0.000;2023-06-10T22:04:33;5.38;;;3.75;;
48777;SDS011;34578;0.000;0.000;2023-06-10T22:09:34;4.25;;;2.50;;
48777;SDS011;34578;0.000;0.000;2023-06-10T22:14:35;3.13;;;2.83;;
48777;SDS011;34578;0.000;0.000;2023-06-10T22:19:37;2.53;;;2.13;;
48777;SDS011;34578;0.000;0.000;2023-06-10T22:24:39;3.40;;;2.72;;
48777;SDS011;34578;0.000;0.000;2023-06-10T22:29:42;3.85;;;2.70;;
48777;SDS011;34578;0.000;0.000;2023-06-10T22:34:42;4.00;;;2.77;;
48777;SDS011;34578;0.000;0.000;2023-06-10T22:39:42;3.67;;;2.37;;
48777;SDS011;34578;0.000;0.000;2023-06-10T22:44:43;4.20;;;3.20;;
48777;SDS011;34578;0.000;0.000;2023-06-10T22:49:43;3.03;;;2.40;;
48777;SDS011;34578;0.000;0.000;2023-06-10T22:54:44;2.27;;;1.93;;
48777;SDS011;34578;0.000;0.000;2023-06-10T22:59:44;2.70;;;2.30;;
48777;SDS011;34578;0.000;0.000;2023-06-10T23:04:44;2.20;;;2.00;;
48777;SDS011;34578;0.000;0.000;2023-06-10T23:09:45;2.00;;;1.80;;
48777;SDS011;34578;0.000;0.000;2023-06-10T23:14:46;2.88;;;2.00;;
48777;SDS011;34578;0.000;0.000;2023-06-10T23:19:46;3.80;;;3.40;;
48777;SDS011;34578;0.000;0.000;2023-06-10T23:24:47;2.35;;;2.15;;
48777;SDS011;34578;0.000;0.000;2023-06-10T23:29:48;2.97;;;2.67;;
48777;SDS011;34578;0.000;0.000;2023-06-10T23:34:48;3.63;;;2.22;;
48777;SDS011;34578;0.000;0.000;2023-06-10T23:39:49;3.00;;;2.33;;
48777;SDS011;34578;0.000;0.000;2023-06-10T23:44:49;2.40;;;2.20;;
48777;SDS011;34578;0.000;0.000;2023-06-10T23:49:50;2.22;;;2.03;;
48777;SDS011;34578;0.000;0.000;2023-06-10T23:54:50;3.43;;;2.40;;
48777;SDS011;34578;0.000;0.000;2023-06-10T23:59:51;2.07;;;1.87;;
